Americus, Kansas
Current Conditions -  °F | °C
As of 3:53 AM on Sunday 26 Oct 2014 (Local Time) from KEMP Reporting Station
Clear Clear  
Wind Chill: 61°   Ceiling: Unl
Heat Index: 61°   Visibility: 8mi
Dew Point: 60°   Wind: 12mph
Humidity: 97%   Direction: 170°S
Pressure: 29.91"   Gusts: NA
Location:  38.51°N, 96.26°W
Report Text: KEMP 260853Z AUTO 17010KT 8SM CLR 16/16 A2991 RMK AO2 SLP119 T01610156 58013
Loading
Personal Weather Stations






























Interactive Weather Map
Tropical Storm Tracking
New forecast layout! Learn more

10-Day Weather Forecast

Advertisements
Track Severe Weather on mobile